sensor_id;sensor_type;location;lat;lon;timestamp;P1;durP1;ratioP1;P2;durP2;ratioP2
74689;SDS011;63221;51.860;-2.188;2023-06-04T00:00:09;6.67;;;1.43;;
74689;SDS011;63221;51.860;-2.188;2023-06-04T00:02:35;3.30;;;1.23;;
74689;SDS011;63221;51.860;-2.188;2023-06-04T00:05:00;3.53;;;1.40;;
74689;SDS011;63221;51.860;-2.188;2023-06-04T00:07:26;5.60;;;1.20;;
74689;SDS011;63221;51.860;-2.188;2023-06-04T00:09:52;7.43;;;1.40;;
74689;SDS011;63221;51.860;-2.188;2023-06-04T00:12:18;6.25;;;1.40;;
74689;SDS011;63221;51.860;-2.188;2023-06-04T00:14:44;13.53;;;1.80;;
74689;SDS011;63221;51.860;-2.188;2023-06-04T00:17:09;4.18;;;1.27;;
74689;SDS011;63221;51.860;-2.188;2023-06-04T00:19:35;3.47;;;1.60;;
74689;SDS011;63221;51.860;-2.188;2023-06-04T00:22:03;4.30;;;1.27;;
74689;SDS011;63221;51.860;-2.188;2023-06-04T00:24:28;3.63;;;1.50;;
74689;SDS011;63221;51.860;-2.188;2023-06-04T00:26:53;4.80;;;0.93;;
74689;SDS011;63221;51.860;-2.188;2023-06-04T00:29:19;5.97;;;1.63;;
74689;SDS011;63221;51.860;-2.188;2023-06-04T00:31:44;4.00;;;1.17;;
74689;SDS011;63221;51.860;-2.188;2023-06-04T00:34:10;3.03;;;1.20;;
74689;SDS011;63221;51.860;-2.188;2023-06-04T00:36:36;2.50;;;1.40;;
74689;SDS011;63221;51.860;-2.188;2023-06-04T00:39:01;4.37;;;1.00;;
74689;SDS011;63221;51.860;-2.188;2023-06-04T00:41:26;5.68;;;1.63;;
74689;SDS011;63221;51.860;-2.188;2023-06-04T00:43:52;4.57;;;1.23;;
74689;SDS011;63221;51.860;-2.188;2023-06-04T00:46:27;3.08;;;1.20;;
74689;SDS011;63221;51.860;-2.188;2023-06-04T00:48:53;4.10;;;1.00;;
74689;SDS011;63221;51.860;-2.188;2023-06-04T00:51:19;4.33;;;0.93;;
74689;SDS011;63221;51.860;-2.188;2023-06-04T00:53:46;4.32;;;1.42;;
74689;SDS011;63221;51.860;-2.188;2023-06-04T00:56:12;3.72;;;1.52;;
74689;SDS011;63221;51.860;-2.188;2023-06-04T00:58:37;4.53;;;1.53;;
74689;SDS011;63221;51.860;-2.188;2023-06-04T01:01:09;4.38;;;1.02;;
74689;SDS011;63221;51.860;-2.188;2023-06-04T01:03:41;4.97;;;1.25;;
74689;SDS011;63221;51.860;-2.188;2023-06-04T01:08:55;3.70;;;1.30;;
74689;SDS011;63221;51.860;-2.188;2023-06-04T01:11:36;3.33;;;1.10;;
74689;SDS011;63221;51.860;-2.188;2023-06-04T01:14:03;3.55;;;0.77;;
74689;SDS011;63221;51.860;-2.188;2023-06-04T01:16:30;3.72;;;1.58;;
74689;SDS011;63221;51.860;-2.188;2023-06-04T01:19:01;3.53;;;0.80;;
74689;SDS011;63221;51.860;-2.188;2023-06-04T01:21:29;6.85;;;1.70;;
74689;SDS011;63221;51.860;-2.188;2023-06-04T01:23:55;4.17;;;1.30;;
74689;SDS011;63221;51.860;-2.188;2023-06-04T01:26:25;4.40;;;1.27;;
74689;SDS011;63221;51.860;-2.188;2023-06-04T01:28:55;2.25;;;0.98;;
74689;SDS011;63221;51.860;-2.188;2023-06-04T01:31:21;4.30;;;1.08;;
74689;SDS011;63221;51.860;-2.188;2023-06-04T01:33:50;4.22;;;1.52;;
74689;SDS011;63221;51.860;-2.188;2023-06-04T01:36:19;3.67;;;1.63;;
74689;SDS011;63221;51.860;-2.188;2023-06-04T01:38:45;3.17;;;1.83;;
74689;SDS011;63221;51.860;-2.188;2023-06-04T01:41:10;3.00;;;1.23;;
74689;SDS011;63221;51.860;-2.188;2023-06-04T01:43:35;3.43;;;1.67;;
74689;SDS011;63221;51.860;-2.188;2023-06-04T01:46:01;6.40;;;2.00;;
74689;SDS011;63221;51.860;-2.188;2023-06-04T01:48:28;5.15;;;1.83;;
74689;SDS011;63221;51.860;-2.188;2023-06-04T01:50:54;4.43;;;1.37;;
74689;SDS011;63221;51.860;-2.188;2023-06-04T01:53:20;7.63;;;2.65;;
74689;SDS011;63221;51.860;-2.188;2023-06-04T01:55:45;5.25;;;2.30;;
74689;SDS011;63221;51.860;-2.188;2023-06-04T01:58:10;6.37;;;1.70;;
74689;SDS011;63221;51.860;-2.188;2023-06-04T02:00:36;2.87;;;1.53;;
74689;SDS011;63221;51.860;-2.188;2023-06-04T02:03:01;3.73;;;1.57;;
74689;SDS011;63221;51.860;-2.188;2023-06-04T02:05:27;6.45;;;1.75;;
74689;SDS011;63221;51.860;-2.188;2023-06-04T02:07:52;6.90;;;1.67;;
74689;SDS011;63221;51.860;-2.188;2023-06-04T02:10:18;2.57;;;1.37;;
74689;SDS011;63221;51.860;-2.188;2023-06-04T02:12:55;5.20;;;1.70;;
74689;SDS011;63221;51.860;-2.188;2023-06-04T02:15:22;7.80;;;1.85;;
74689;SDS011;63221;51.860;-2.188;2023-06-04T02:17:48;4.93;;;1.67;;
74689;SDS011;63221;51.860;-2.188;2023-06-04T02:20:15;5.90;;;1.88;;
74689;SDS011;63221;51.860;-2.188;2023-06-04T02:22:41;8.75;;;2.13;;
74689;SDS011;63221;51.860;-2.188;2023-06-04T02:25:07;7.03;;;2.27;;
74689;SDS011;63221;51.860;-2.188;2023-06-04T02:27:34;5.03;;;1.95;;
74689;SDS011;63221;51.860;-2.188;2023-06-04T02:30:00;7.20;;;2.22;;
74689;SDS011;63221;51.860;-2.188;2023-06-04T02:32:26;4.32;;;1.80;;
74689;SDS011;63221;51.860;-2.188;2023-06-04T02:34:53;5.93;;;1.98;;
74689;SDS011;63221;51.860;-2.188;2023-06-04T02:37:19;4.43;;;1.60;;
74689;SDS011;63221;51.860;-2.188;2023-06-04T02:39:45;6.22;;;2.33;;
74689;SDS011;63221;51.860;-2.188;2023-06-04T02:42:10;4.37;;;2.13;;
74689;SDS011;63221;51.860;-2.188;2023-06-04T02:44:35;4.57;;;1.47;;
74689;SDS011;63221;51.860;-2.188;2023-06-04T02:47:01;6.87;;;2.07;;
74689;SDS011;63221;51.860;-2.188;2023-06-04T02:49:26;6.90;;;2.05;;
74689;SDS011;63221;51.860;-2.188;2023-06-04T02:51:51;6.90;;;2.50;;
74689;SDS011;63221;51.860;-2.188;2023-06-04T02:54:17;3.90;;;2.13;;
74689;SDS011;63221;51.860;-2.188;2023-06-04T02:56:42;4.90;;;1.63;;
74689;SDS011;63221;51.860;-2.188;2023-06-04T02:59:09;3.45;;;2.20;;
74689;SDS011;63221;51.860;-2.188;2023-06-04T03:01:35;4.93;;;2.03;;
74689;SDS011;63221;51.860;-2.188;2023-06-04T03:04:01;6.82;;;1.60;;
74689;SDS011;63221;51.860;-2.188;2023-06-04T03:06:30;3.60;;;2.10;;
74689;SDS011;63221;51.860;-2.188;2023-06-04T03:08:57;6.68;;;2.08;;
74689;SDS011;63221;51.860;-2.188;2023-06-04T03:11:23;7.47;;;2.03;;
74689;SDS011;63221;51.860;-2.188;2023-06-04T03:13:48;5.53;;;1.93;;
74689;SDS011;63221;51.860;-2.188;2023-06-04T03:16:14;8.93;;;1.90;;
74689;SDS011;63221;51.860;-2.188;2023-06-04T03:18:40;5.27;;;1.87;;
74689;SDS011;63221;51.860;-2.188;2023-06-04T03:21:06;6.73;;;2.23;;
74689;SDS011;63221;51.860;-2.188;2023-06-04T03:23:32;5.57;;;2.45;;
74689;SDS011;63221;51.860;-2.188;2023-06-04T03:25:58;5.35;;;2.53;;
74689;SDS011;63221;51.860;-2.188;2023-06-04T03:28:24;7.13;;;2.47;;
74689;SDS011;63221;51.860;-2.188;2023-06-04T03:30:49;5.93;;;2.70;;
74689;SDS011;63221;51.860;-2.188;2023-06-04T03:33:14;11.73;;;3.93;;
74689;SDS011;63221;51.860;-2.188;2023-06-04T03:35:40;9.57;;;2.33;;
74689;SDS011;63221;51.860;-2.188;2023-06-04T03:38:07;12.00;;;3.70;;
74689;SDS011;63221;51.860;-2.188;2023-06-04T03:40:32;8.10;;;3.00;;
74689;SDS011;63221;51.860;-2.188;2023-06-04T03:42:58;7.47;;;2.60;;
74689;SDS011;63221;51.860;-2.188;2023-06-04T03:45:23;7.77;;;2.90;;
74689;SDS011;63221;51.860;-2.188;2023-06-04T03:47:48;8.57;;;2.58;;
74689;SDS011;63221;51.860;-2.188;2023-06-04T03:50:14;8.20;;;3.33;;
74689;SDS011;63221;51.860;-2.188;2023-06-04T03:52:39;8.33;;;2.57;;
74689;SDS011;63221;51.860;-2.188;2023-06-04T03:55:05;7.13;;;3.20;;
74689;SDS011;63221;51.860;-2.188;2023-06-04T03:57:30;13.82;;;2.20;;
74689;SDS011;63221;51.860;-2.188;2023-06-04T03:59:57;7.88;;;2.70;;
74689;SDS011;63221;51.860;-2.188;2023-06-04T04:02:23;8.80;;;2.80;;
74689;SDS011;63221;51.860;-2.188;2023-06-04T04:04:48;6.50;;;2.90;;
74689;SDS011;63221;51.860;-2.188;2023-06-04T04:07:14;9.88;;;3.88;;
74689;SDS011;63221;51.860;-2.188;2023-06-04T04:09:40;10.77;;;2.88;;
74689;SDS011;63221;51.860;-2.188;2023-06-04T04:12:06;12.50;;;3.40;;
74689;SDS011;63221;51.860;-2.188;2023-06-04T04:14:32;7.88;;;3.17;;
74689;SDS011;63221;51.860;-2.188;2023-06-04T04:16:57;12.90;;;3.70;;
74689;SDS011;63221;51.860;-2.188;2023-06-04T04:19:22;6.97;;;3.97;;
74689;SDS011;63221;51.860;-2.188;2023-06-04T04:21:48;6.20;;;3.73;;
74689;SDS011;63221;51.860;-2.188;2023-06-04T04:24:23;7.70;;;3.05;;
74689;SDS011;63221;51.860;-2.188;2023-06-04T04:26:49;12.93;;;3.90;;
74689;SDS011;63221;51.860;-2.188;2023-06-04T04:29:17;10.95;;;3.25;;
74689;SDS011;63221;51.860;-2.188;2023-06-04T04:31:48;9.93;;;3.37;;
74689;SDS011;63221;51.860;-2.188;2023-06-04T04:34:14;9.40;;;4.30;;
74689;SDS011;63221;51.860;-2.188;2023-06-04T04:36:40;9.50;;;3.60;;
74689;SDS011;63221;51.860;-2.188;2023-06-04T04:39:05;12.38;;;3.30;;
74689;SDS011;63221;51.860;-2.188;2023-06-04T04:41:31;13.27;;;4.00;;
74689;SDS011;63221;51.860;-2.188;2023-06-04T04:44:02;10.38;;;4.00;;
74689;SDS011;63221;51.860;-2.188;2023-06-04T04:46:29;13.18;;;4.18;;
74689;SDS011;63221;51.860;-2.188;2023-06-04T04:48:54;9.90;;;3.80;;
74689;SDS011;63221;51.860;-2.188;2023-06-04T04:51:20;10.50;;;4.17;;
74689;SDS011;63221;51.860;-2.188;2023-06-04T04:53:46;9.25;;;3.65;;
74689;SDS011;63221;51.860;-2.188;2023-06-04T04:56:11;7.60;;;2.77;;
74689;SDS011;63221;51.860;-2.188;2023-06-04T04:58:36;7.00;;;3.93;;
74689;SDS011;63221;51.860;-2.188;2023-06-04T05:01:02;8.80;;;4.10;;
74689;SDS011;63221;51.860;-2.188;2023-06-04T05:03:27;10.70;;;3.40;;
74689;SDS011;63221;51.860;-2.188;2023-06-04T05:05:53;9.90;;;3.27;;
74689;SDS011;63221;51.860;-2.188;2023-06-04T05:08:18;9.30;;;3.97;;
74689;SDS011;63221;51.860;-2.188;2023-06-04T05:10:43;10.43;;;3.47;;
74689;SDS011;63221;51.860;-2.188;2023-06-04T05:13:09;6.43;;;2.90;;
74689;SDS011;63221;51.860;-2.188;2023-06-04T05:15:36;7.73;;;3.37;;
74689;SDS011;63221;51.860;-2.188;2023-06-04T05:18:02;10.80;;;4.25;;
74689;SDS011;63221;51.860;-2.188;2023-06-04T05:20:28;7.45;;;3.55;;
74689;SDS011;63221;51.860;-2.188;2023-06-04T05:22:54;10.55;;;4.40;;
74689;SDS011;63221;51.860;-2.188;2023-06-04T05:25:20;10.20;;;4.47;;
74689;SDS011;63221;51.860;-2.188;2023-06-04T05:27:46;10.48;;;3.90;;
74689;SDS011;63221;51.860;-2.188;2023-06-04T05:30:14;10.23;;;3.80;;
74689;SDS011;63221;51.860;-2.188;2023-06-04T05:32:40;11.98;;;3.88;;
74689;SDS011;63221;51.860;-2.188;2023-06-04T05:35:06;11.60;;;3.67;;
74689;SDS011;63221;51.860;-2.188;2023-06-04T05:37:33;6.93;;;3.53;;
74689;SDS011;63221;51.860;-2.188;2023-06-04T05:39:59;8.93;;;5.05;;
74689;SDS011;63221;51.860;-2.188;2023-06-04T05:42:25;7.53;;;3.60;;
74689;SDS011;63221;51.860;-2.188;2023-06-04T05:44:50;12.93;;;4.50;;
74689;SDS011;63221;51.860;-2.188;2023-06-04T05:47:16;9.45;;;3.85;;
74689;SDS011;63221;51.860;-2.188;2023-06-04T05:49:43;15.93;;;4.75;;
74689;SDS011;63221;51.860;-2.188;2023-06-04T05:52:09;9.10;;;3.63;;
74689;SDS011;63221;51.860;-2.188;2023-06-04T05:54:34;6.83;;;4.07;;
74689;SDS011;63221;51.860;-2.188;2023-06-04T05:57:02;8.68;;;4.00;;
74689;SDS011;63221;51.860;-2.188;2023-06-04T05:59:27;10.00;;;3.77;;
74689;SDS011;63221;51.860;-2.188;2023-06-04T06:01:53;8.50;;;3.67;;
74689;SDS011;63221;51.860;-2.188;2023-06-04T06:04:18;9.70;;;3.97;;
74689;SDS011;63221;51.860;-2.188;2023-06-04T06:06:44;6.20;;;2.97;;
74689;SDS011;63221;51.860;-2.188;2023-06-04T06:09:12;13.00;;;3.85;;
74689;SDS011;63221;51.860;-2.188;2023-06-04T06:11:37;7.30;;;3.70;;
74689;SDS011;63221;51.860;-2.188;2023-06-04T06:14:03;10.83;;;3.70;;
74689;SDS011;63221;51.860;-2.188;2023-06-04T06:16:28;7.27;;;3.23;;
74689;SDS011;63221;51.860;-2.188;2023-06-04T06:18:53;8.03;;;3.13;;
74689;SDS011;63221;51.860;-2.188;2023-06-04T06:21:19;13.53;;;3.87;;
74689;SDS011;63221;51.860;-2.188;2023-06-04T06:23:45;10.20;;;3.13;;
74689;SDS011;63221;51.860;-2.188;2023-06-04T06:26:10;8.10;;;3.50;;
74689;SDS011;63221;51.860;-2.188;2023-06-04T06:28:36;8.27;;;3.23;;
74689;SDS011;63221;51.860;-2.188;2023-06-04T06:31:01;8.35;;;2.80;;
74689;SDS011;63221;51.860;-2.188;2023-06-04T06:33:27;6.33;;;3.00;;
74689;SDS011;63221;51.860;-2.188;2023-06-04T06:35:52;6.53;;;3.43;;
74689;SDS011;63221;51.860;-2.188;2023-06-04T06:38:18;7.50;;;2.70;;
74689;SDS011;63221;51.860;-2.188;2023-06-04T06:40:43;5.10;;;2.50;;
74689;SDS011;63221;51.860;-2.188;2023-06-04T06:43:09;7.07;;;2.43;;
74689;SDS011;63221;51.860;-2.188;2023-06-04T06:45:35;6.35;;;2.58;;
74689;SDS011;63221;51.860;-2.188;2023-06-04T06:48:01;5.60;;;3.20;;
74689;SDS011;63221;51.860;-2.188;2023-06-04T06:50:26;6.27;;;2.50;;
74689;SDS011;63221;51.860;-2.188;2023-06-04T06:52:52;7.43;;;2.30;;
74689;SDS011;63221;51.860;-2.188;2023-06-04T06:55:17;6.55;;;2.75;;
74689;SDS011;63221;51.860;-2.188;2023-06-04T06:57:43;5.67;;;2.33;;
74689;SDS011;63221;51.860;-2.188;2023-06-04T07:00:09;7.13;;;3.08;;
74689;SDS011;63221;51.860;-2.188;2023-06-04T07:02:35;5.43;;;2.77;;
74689;SDS011;63221;51.860;-2.188;2023-06-04T07:05:00;9.23;;;2.97;;
74689;SDS011;63221;51.860;-2.188;2023-06-04T07:07:26;9.83;;;2.10;;
74689;SDS011;63221;51.860;-2.188;2023-06-04T07:09:51;11.48;;;3.60;;
74689;SDS011;63221;51.860;-2.188;2023-06-04T07:12:17;5.37;;;2.23;;
74689;SDS011;63221;51.860;-2.188;2023-06-04T07:14:42;6.27;;;2.80;;
74689;SDS011;63221;51.860;-2.188;2023-06-04T07:17:08;7.20;;;2.47;;
74689;SDS011;63221;51.860;-2.188;2023-06-04T07:19:33;9.15;;;2.95;;
74689;SDS011;63221;51.860;-2.188;2023-06-04T07:21:59;7.67;;;2.40;;
74689;SDS011;63221;51.860;-2.188;2023-06-04T07:24:24;15.63;;;3.60;;
74689;SDS011;63221;51.860;-2.188;2023-06-04T07:26:50;6.00;;;2.70;;
74689;SDS011;63221;51.860;-2.188;2023-06-04T07:29:15;5.40;;;2.90;;
74689;SDS011;63221;51.860;-2.188;2023-06-04T07:31:41;7.50;;;3.17;;
74689;SDS011;63221;51.860;-2.188;2023-06-04T07:34:06;6.97;;;3.37;;
74689;SDS011;63221;51.860;-2.188;2023-06-04T07:36:32;6.37;;;2.53;;
74689;SDS011;63221;51.860;-2.188;2023-06-04T07:38:58;4.83;;;2.47;;
74689;SDS011;63221;51.860;-2.188;2023-06-04T07:41:24;8.15;;;2.83;;
74689;SDS011;63221;51.860;-2.188;2023-06-04T07:43:51;8.38;;;2.72;;
74689;SDS011;63221;51.860;-2.188;2023-06-04T07:46:16;6.70;;;2.20;;
74689;SDS011;63221;51.860;-2.188;2023-06-04T07:48:44;9.00;;;2.67;;
74689;SDS011;63221;51.860;-2.188;2023-06-04T07:51:10;5.30;;;2.50;;
74689;SDS011;63221;51.860;-2.188;2023-06-04T07:53:36;7.30;;;2.97;;
74689;SDS011;63221;51.860;-2.188;2023-06-04T07:56:03;7.93;;;2.88;;
74689;SDS011;63221;51.860;-2.188;2023-06-04T07:58:28;8.38;;;2.65;;
74689;SDS011;63221;51.860;-2.188;2023-06-04T08:00:55;4.83;;;2.77;;
74689;SDS011;63221;51.860;-2.188;2023-06-04T08:03:20;11.27;;;2.55;;
74689;SDS011;63221;51.860;-2.188;2023-06-04T08:05:46;5.88;;;2.50;;
74689;SDS011;63221;51.860;-2.188;2023-06-04T08:08:11;4.60;;;2.67;;
74689;SDS011;63221;51.860;-2.188;2023-06-04T08:10:38;6.37;;;1.90;;
74689;SDS011;63221;51.860;-2.188;2023-06-04T08:13:04;4.88;;;2.75;;
74689;SDS011;63221;51.860;-2.188;2023-06-04T08:15:30;6.10;;;2.47;;
74689;SDS011;63221;51.860;-2.188;2023-06-04T08:17:55;4.55;;;2.03;;
74689;SDS011;63221;51.860;-2.188;2023-06-04T08:20:21;3.73;;;1.60;;
74689;SDS011;63221;51.860;-2.188;2023-06-04T08:22:47;4.55;;;1.55;;
74689;SDS011;63221;51.860;-2.188;2023-06-04T08:25:12;7.03;;;2.20;;
74689;SDS011;63221;51.860;-2.188;2023-06-04T08:27:39;5.70;;;3.35;;
74689;SDS011;63221;51.860;-2.188;2023-06-04T08:30:05;7.17;;;2.53;;
74689;SDS011;63221;51.860;-2.188;2023-06-04T08:32:31;5.43;;;2.33;;
74689;SDS011;63221;51.860;-2.188;2023-06-04T08:34:56;6.93;;;2.83;;
74689;SDS011;63221;51.860;-2.188;2023-06-04T08:37:21;7.70;;;2.80;;
74689;SDS011;63221;51.860;-2.188;2023-06-04T08:39:49;7.88;;;2.58;;
74689;SDS011;63221;51.860;-2.188;2023-06-04T08:43:00;6.93;;;2.23;;
74689;SDS011;63221;51.860;-2.188;2023-06-04T08:45:08;7.35;;;2.55;;
74689;SDS011;63221;51.860;-2.188;2023-06-04T08:47:36;12.27;;;4.60;;
74689;SDS011;63221;51.860;-2.188;2023-06-04T08:50:02;4.63;;;2.08;;
74689;SDS011;63221;51.860;-2.188;2023-06-04T08:52:30;5.75;;;2.38;;
74689;SDS011;63221;51.860;-2.188;2023-06-04T08:54:56;5.20;;;2.40;;
74689;SDS011;63221;51.860;-2.188;2023-06-04T08:57:21;5.00;;;2.50;;
74689;SDS011;63221;51.860;-2.188;2023-06-04T08:59:47;6.37;;;2.47;;
74689;SDS011;63221;51.860;-2.188;2023-06-04T09:02:14;6.32;;;3.08;;
74689;SDS011;63221;51.860;-2.188;2023-06-04T09:04:40;6.95;;;2.60;;
74689;SDS011;63221;51.860;-2.188;2023-06-04T09:07:05;10.37;;;2.97;;
74689;SDS011;63221;51.860;-2.188;2023-06-04T09:09:31;4.97;;;2.20;;
74689;SDS011;63221;51.860;-2.188;2023-06-04T09:12:01;6.07;;;2.50;;
74689;SDS011;63221;51.860;-2.188;2023-06-04T09:14:27;10.27;;;2.33;;
74689;SDS011;63221;51.860;-2.188;2023-06-04T09:16:53;6.63;;;2.47;;
74689;SDS011;63221;51.860;-2.188;2023-06-04T09:19:20;6.10;;;2.40;;
74689;SDS011;63221;51.860;-2.188;2023-06-04T09:22:04;9.25;;;2.58;;
74689;SDS011;63221;51.860;-2.188;2023-06-04T09:27:13;3.85;;;2.10;;
74689;SDS011;63221;51.860;-2.188;2023-06-04T09:29:40;5.83;;;1.93;;
74689;SDS011;63221;51.860;-2.188;2023-06-04T09:32:06;4.63;;;2.53;;
74689;SDS011;63221;51.860;-2.188;2023-06-04T09:34:31;6.07;;;2.57;;
74689;SDS011;63221;51.860;-2.188;2023-06-04T09:36:57;6.50;;;1.90;;
74689;SDS011;63221;51.860;-2.188;2023-06-04T09:39:23;4.40;;;1.83;;
74689;SDS011;63221;51.860;-2.188;2023-06-04T09:41:58;6.37;;;2.60;;
74689;SDS011;63221;51.860;-2.188;2023-06-04T09:44:25;5.80;;;2.30;;
74689;SDS011;63221;51.860;-2.188;2023-06-04T09:46:57;4.70;;;2.03;;
74689;SDS011;63221;51.860;-2.188;2023-06-04T09:49:23;4.85;;;1.58;;
74689;SDS011;63221;51.860;-2.188;2023-06-04T09:51:49;5.43;;;2.35;;
74689;SDS011;63221;51.860;-2.188;2023-06-04T09:54:14;6.30;;;2.53;;
74689;SDS011;63221;51.860;-2.188;2023-06-04T09:56:40;5.00;;;2.33;;
74689;SDS011;63221;51.860;-2.188;2023-06-04T09:59:06;4.50;;;2.15;;
74689;SDS011;63221;51.860;-2.188;2023-06-04T10:01:33;4.35;;;2.13;;
74689;SDS011;63221;51.860;-2.188;2023-06-04T10:04:02;5.17;;;2.20;;
74689;SDS011;63221;51.860;-2.188;2023-06-04T10:06:29;5.80;;;1.67;;
74689;SDS011;63221;51.860;-2.188;2023-06-04T10:08:59;5.43;;;2.13;;
74689;SDS011;63221;51.860;-2.188;2023-06-04T10:11:31;8.30;;;2.53;;
74689;SDS011;63221;51.860;-2.188;2023-06-04T10:14:09;5.67;;;1.90;;
74689;SDS011;63221;51.860;-2.188;2023-06-04T10:16:37;6.40;;;2.30;;
74689;SDS011;63221;51.860;-2.188;2023-06-04T10:19:06;6.50;;;2.22;;
74689;SDS011;63221;51.860;-2.188;2023-06-04T10:21:32;5.85;;;2.05;;
74689;SDS011;63221;51.860;-2.188;2023-06-04T10:24:00;4.70;;;1.73;;
74689;SDS011;63221;51.860;-2.188;2023-06-04T10:26:25;5.17;;;2.03;;
74689;SDS011;63221;51.860;-2.188;2023-06-04T10:28:51;3.93;;;1.97;;
74689;SDS011;63221;51.860;-2.188;2023-06-04T10:31:17;5.60;;;2.10;;
74689;SDS011;63221;51.860;-2.188;2023-06-04T10:33:43;4.47;;;2.30;;
74689;SDS011;63221;51.860;-2.188;2023-06-04T10:36:19;4.18;;;2.13;;
74689;SDS011;63221;51.860;-2.188;2023-06-04T10:38:48;4.00;;;1.63;;
74689;SDS011;63221;51.860;-2.188;2023-06-04T10:41:14;3.55;;;1.90;;
74689;SDS011;63221;51.860;-2.188;2023-06-04T10:43:44;4.25;;;1.92;;
74689;SDS011;63221;51.860;-2.188;2023-06-04T10:46:11;3.80;;;1.95;;
74689;SDS011;63221;51.860;-2.188;2023-06-04T10:48:48;5.43;;;2.10;;
74689;SDS011;63221;51.860;-2.188;2023-06-04T10:51:28;4.57;;;2.20;;
74689;SDS011;63221;51.860;-2.188;2023-06-04T10:53:57;2.70;;;1.60;;
74689;SDS011;63221;51.860;-2.188;2023-06-04T10:56:26;4.60;;;1.50;;
74689;SDS011;63221;51.860;-2.188;2023-06-04T10:58:53;2.80;;;1.92;;
74689;SDS011;63221;51.860;-2.188;2023-06-04T11:03:57;6.05;;;1.70;;
74689;SDS011;63221;51.860;-2.188;2023-06-04T11:06:23;3.55;;;1.63;;
74689;SDS011;63221;51.860;-2.188;2023-06-04T11:09:01;6.75;;;2.03;;
74689;SDS011;63221;51.860;-2.188;2023-06-04T11:11:30;5.03;;;1.55;;
74689;SDS011;63221;51.860;-2.188;2023-06-04T11:14:06;4.30;;;1.60;;
74689;SDS011;63221;51.860;-2.188;2023-06-04T11:16:33;5.43;;;1.60;;
74689;SDS011;63221;51.860;-2.188;2023-06-04T11:18:58;3.53;;;1.93;;
74689;SDS011;63221;51.860;-2.188;2023-06-04T11:21:24;4.32;;;1.90;;
74689;SDS011;63221;51.860;-2.188;2023-06-04T11:23:54;4.90;;;1.60;;
74689;SDS011;63221;51.860;-2.188;2023-06-04T11:26:21;6.18;;;2.97;;
74689;SDS011;63221;51.860;-2.188;2023-06-04T11:28:49;3.55;;;1.80;;
74689;SDS011;63221;51.860;-2.188;2023-06-04T11:31:15;4.60;;;1.80;;
74689;SDS011;63221;51.860;-2.188;2023-06-04T11:36:10;3.40;;;1.27;;
74689;SDS011;63221;51.860;-2.188;2023-06-04T11:38:35;4.53;;;1.77;;
74689;SDS011;63221;51.860;-2.188;2023-06-04T11:41:04;3.93;;;1.57;;
74689;SDS011;63221;51.860;-2.188;2023-06-04T11:43:31;4.03;;;2.00;;
74689;SDS011;63221;51.860;-2.188;2023-06-04T11:45:57;3.97;;;1.98;;
74689;SDS011;63221;51.860;-2.188;2023-06-04T11:48:23;6.63;;;1.70;;
74689;SDS011;63221;51.860;-2.188;2023-06-04T11:50:48;6.78;;;1.90;;
74689;SDS011;63221;51.860;-2.188;2023-06-04T11:53:14;3.00;;;1.37;;
74689;SDS011;63221;51.860;-2.188;2023-06-04T11:55:40;4.10;;;2.05;;
74689;SDS011;63221;51.860;-2.188;2023-06-04T11:58:06;4.93;;;2.03;;
74689;SDS011;63221;51.860;-2.188;2023-06-04T12:00:31;2.95;;;1.75;;
74689;SDS011;63221;51.860;-2.188;2023-06-04T12:02:57;4.03;;;1.60;;
74689;SDS011;63221;51.860;-2.188;2023-06-04T12:05:23;3.00;;;1.65;;
74689;SDS011;63221;51.860;-2.188;2023-06-04T12:08:03;3.85;;;1.10;;
74689;SDS011;63221;51.860;-2.188;2023-06-04T12:10:30;5.38;;;1.77;;
74689;SDS011;63221;51.860;-2.188;2023-06-04T12:13:02;4.10;;;1.47;;
74689;SDS011;63221;51.860;-2.188;2023-06-04T12:15:28;3.80;;;1.50;;
74689;SDS011;63221;51.860;-2.188;2023-06-04T12:17:53;2.10;;;1.27;;
74689;SDS011;63221;51.860;-2.188;2023-06-04T12:20:31;5.53;;;2.10;;
74689;SDS011;63221;51.860;-2.188;2023-06-04T12:23:01;3.80;;;1.25;;
74689;SDS011;63221;51.860;-2.188;2023-06-04T12:25:27;3.25;;;1.80;;
74689;SDS011;63221;51.860;-2.188;2023-06-04T12:27:54;3.35;;;1.25;;
74689;SDS011;63221;51.860;-2.188;2023-06-04T12:30:19;4.03;;;1.50;;
74689;SDS011;63221;51.860;-2.188;2023-06-04T12:32:44;3.50;;;1.50;;
74689;SDS011;63221;51.860;-2.188;2023-06-04T12:35:10;3.45;;;1.55;;
74689;SDS011;63221;51.860;-2.188;2023-06-04T12:37:36;3.60;;;1.87;;
74689;SDS011;63221;51.860;-2.188;2023-06-04T12:40:01;4.38;;;1.70;;
74689;SDS011;63221;51.860;-2.188;2023-06-04T12:42:29;2.73;;;1.20;;
74689;SDS011;63221;51.860;-2.188;2023-06-04T12:44:55;4.57;;;1.98;;
74689;SDS011;63221;51.860;-2.188;2023-06-04T12:47:20;3.30;;;1.75;;
74689;SDS011;63221;51.860;-2.188;2023-06-04T12:49:46;2.97;;;1.47;;
74689;SDS011;63221;51.860;-2.188;2023-06-04T12:52:12;3.07;;;1.40;;
74689;SDS011;63221;51.860;-2.188;2023-06-04T12:54:39;2.93;;;1.73;;
74689;SDS011;63221;51.860;-2.188;2023-06-04T12:57:05;2.92;;;1.73;;
74689;SDS011;63221;51.860;-2.188;2023-06-04T12:59:30;3.03;;;1.63;;
74689;SDS011;63221;51.860;-2.188;2023-06-04T13:01:56;2.47;;;1.20;;
74689;SDS011;63221;51.860;-2.188;2023-06-04T13:04:21;3.33;;;1.80;;
74689;SDS011;63221;51.860;-2.188;2023-06-04T13:06:48;3.17;;;1.63;;
74689;SDS011;63221;51.860;-2.188;2023-06-04T13:09:14;2.27;;;1.57;;
74689;SDS011;63221;51.860;-2.188;2023-06-04T13:11:40;2.40;;;1.30;;
74689;SDS011;63221;51.860;-2.188;2023-06-04T13:14:07;2.78;;;1.48;;
74689;SDS011;63221;51.860;-2.188;2023-06-04T13:16:32;3.57;;;1.80;;
74689;SDS011;63221;51.860;-2.188;2023-06-04T13:18:58;2.83;;;1.13;;
74689;SDS011;63221;51.860;-2.188;2023-06-04T13:21:23;4.22;;;1.65;;
74689;SDS011;63221;51.860;-2.188;2023-06-04T13:23:49;3.33;;;2.07;;
74689;SDS011;63221;51.860;-2.188;2023-06-04T13:26:15;4.03;;;1.90;;
74689;SDS011;63221;51.860;-2.188;2023-06-04T13:28:41;6.63;;;2.30;;
74689;SDS011;63221;51.860;-2.188;2023-06-04T13:31:06;5.13;;;1.48;;
74689;SDS011;63221;51.860;-2.188;2023-06-04T13:33:32;2.23;;;1.53;;
74689;SDS011;63221;51.860;-2.188;2023-06-04T13:35:59;5.25;;;1.85;;
74689;SDS011;63221;51.860;-2.188;2023-06-04T13:38:25;4.13;;;1.80;;
74689;SDS011;63221;51.860;-2.188;2023-06-04T13:40:50;6.55;;;2.25;;
74689;SDS011;63221;51.860;-2.188;2023-06-04T13:43:16;3.77;;;1.40;;
74689;SDS011;63221;51.860;-2.188;2023-06-04T13:45:41;4.23;;;1.83;;
74689;SDS011;63221;51.860;-2.188;2023-06-04T13:48:09;3.40;;;1.70;;
74689;SDS011;63221;51.860;-2.188;2023-06-04T13:50:34;5.57;;;1.63;;
74689;SDS011;63221;51.860;-2.188;2023-06-04T13:53:00;3.60;;;1.60;;
74689;SDS011;63221;51.860;-2.188;2023-06-04T13:55:26;5.17;;;1.93;;
74689;SDS011;63221;51.860;-2.188;2023-06-04T13:57:51;2.83;;;2.13;;
74689;SDS011;63221;51.860;-2.188;2023-06-04T14:00:17;3.60;;;1.20;;
74689;SDS011;63221;51.860;-2.188;2023-06-04T14:02:42;3.77;;;2.00;;
74689;SDS011;63221;51.860;-2.188;2023-06-04T14:05:07;2.40;;;1.17;;
74689;SDS011;63221;51.860;-2.188;2023-06-04T14:07:33;4.10;;;2.05;;
74689;SDS011;63221;51.860;-2.188;2023-06-04T14:09:59;2.33;;;1.50;;
74689;SDS011;63221;51.860;-2.188;2023-06-04T14:12:25;3.50;;;1.13;;
74689;SDS011;63221;51.860;-2.188;2023-06-04T14:14:50;2.80;;;1.60;;
74689;SDS011;63221;51.860;-2.188;2023-06-04T14:17:16;4.25;;;2.08;;
74689;SDS011;63221;51.860;-2.188;2023-06-04T14:19:41;2.47;;;1.53;;
74689;SDS011;63221;51.860;-2.188;2023-06-04T14:22:07;3.72;;;1.60;;
74689;SDS011;63221;51.860;-2.188;2023-06-04T14:24:32;2.50;;;1.40;;
74689;SDS011;63221;51.860;-2.188;2023-06-04T14:26:58;2.43;;;1.40;;
74689;SDS011;63221;51.860;-2.188;2023-06-04T14:29:23;3.08;;;1.30;;
74689;SDS011;63221;51.860;-2.188;2023-06-04T14:31:49;3.33;;;1.83;;
74689;SDS011;63221;51.860;-2.188;2023-06-04T14:34:15;3.92;;;1.67;;
74689;SDS011;63221;51.860;-2.188;2023-06-04T14:36:41;3.63;;;1.70;;
74689;SDS011;63221;51.860;-2.188;2023-06-04T14:39:06;2.73;;;1.87;;